createdAt,value
2017-08-01T00:00:28.755Z,21.3
2017-08-01T00:01:30.940Z,21.2
2017-08-01T00:02:32.337Z,21.2
2017-08-01T00:03:33.985Z,21.2
2017-08-01T00:04:35.883Z,21.2
2017-08-01T00:06:18.234Z,21.1
2017-08-01T00:07:19.620Z,21.1
2017-08-01T00:08:21.000Z,21.2
2017-08-01T00:09:22.384Z,21.1
2017-08-01T00:10:24.021Z,21.2
2017-08-01T00:11:25.402Z,21.0
2017-08-01T00:12:26.785Z,21.0
2017-08-01T00:14:09.166Z,20.9
2017-08-01T00:15:10.638Z,20.9
2017-08-01T00:16:12.041Z,20.7
2017-08-01T00:17:13.414Z,20.7
2017-08-01T00:18:14.799Z,20.8
2017-08-01T00:19:16.186Z,20.6
2017-08-01T00:20:17.564Z,20.5
2017-08-01T00:21:18.946Z,20.5
2017-08-01T00:22:20.326Z,20.4
2017-08-01T00:23:21.730Z,20.3
2017-08-01T00:24:23.113Z,20.3
2017-08-01T00:25:24.488Z,20.2
2017-08-01T00:26:25.886Z,20.2
2017-08-01T00:27:27.280Z,20.2
2017-08-01T00:28:28.731Z,20.2
2017-08-01T00:29:30.112Z,20.2
2017-08-01T00:30:31.487Z,20.1
2017-08-01T00:32:13.866Z,20.2
2017-08-01T00:33:15.243Z,20.2
2017-08-01T00:34:16.623Z,20.2
2017-08-01T00:35:18.000Z,20.2
2017-08-01T00:36:19.383Z,20.2
2017-08-01T00:37:20.761Z,20.2
2017-08-01T00:38:22.141Z,20.3
2017-08-01T00:40:04.507Z,20.3
2017-08-01T00:41:05.900Z,20.3
2017-08-01T00:42:07.281Z,20.3
2017-08-01T00:43:08.664Z,20.3
2017-08-01T00:44:10.045Z,20.3
2017-08-01T00:45:11.430Z,20.3
2017-08-01T00:46:12.810Z,20.4
2017-08-01T00:47:14.192Z,20.2
2017-08-01T00:48:15.580Z,20.2
2017-08-01T00:49:16.960Z,20.1
2017-08-01T00:50:18.339Z,20.2
2017-08-01T00:51:19.831Z,20.1
2017-08-01T00:52:21.219Z,20.2
2017-08-01T00:53:22.599Z,20.2
2017-08-01T00:54:24.010Z,20.2
2017-08-01T00:55:25.387Z,20.3
2017-08-01T00:56:26.768Z,20.3
2017-08-01T00:57:28.151Z,20.2
2017-08-01T00:58:29.526Z,20.3
2017-08-01T00:59:30.915Z,20.1
2017-08-01T01:01:13.286Z,20.2
2017-08-01T01:02:14.664Z,20.2
2017-08-01T01:03:16.049Z,20.1
2017-08-01T01:04:17.429Z,20.1
2017-08-01T01:05:18.835Z,20.0
2017-08-01T01:06:20.220Z,20.0
2017-08-01T01:07:21.595Z,19.9
2017-08-01T01:08:22.985Z,19.8
2017-08-01T01:10:05.352Z,19.8
2017-08-01T01:11:06.732Z,19.8
2017-08-01T01:12:08.110Z,19.8
2017-08-01T01:13:09.484Z,19.7
2017-08-01T01:14:10.939Z,19.8
2017-08-01T01:15:12.320Z,19.8
2017-08-01T01:16:13.710Z,19.8
2017-08-01T01:17:15.083Z,19.8
2017-08-01T01:18:16.553Z,19.7
2017-08-01T01:19:17.973Z,19.8
2017-08-01T01:20:19.350Z,19.8
2017-08-01T01:21:20.858Z,19.7
2017-08-01T01:22:22.219Z,19.8
2017-08-01T01:23:23.599Z,19.6
2017-08-01T01:24:24.981Z,19.6
2017-08-01T01:25:26.372Z,19.6
2017-08-01T01:26:27.753Z,19.6
2017-08-01T01:27:29.152Z,19.7
2017-08-01T01:28:30.533Z,19.8
2017-08-01T01:29:31.985Z,19.7
2017-08-01T01:30:33.375Z,19.8
2017-08-01T01:31:34.845Z,19.8
2017-08-01T01:33:17.197Z,19.8
2017-08-01T01:34:18.575Z,19.7
2017-08-01T01:35:19.952Z,19.7
2017-08-01T01:36:21.359Z,19.7
2017-08-01T01:37:22.849Z,19.8
2017-08-01T01:38:24.188Z,19.7
2017-08-01T01:39:25.571Z,19.7
2017-08-01T01:40:26.955Z,19.8
2017-08-01T01:41:28.326Z,19.8
2017-08-01T01:42:29.709Z,19.7
2017-08-01T01:44:12.081Z,19.8
2017-08-01T01:45:13.460Z,19.7
2017-08-01T01:46:14.833Z,19.7
2017-08-01T01:47:16.441Z,19.7
2017-08-01T01:48:17.831Z,19.6
2017-08-01T01:49:19.208Z,19.7
2017-08-01T01:50:20.675Z,19.6
2017-08-01T01:51:22.059Z,19.6
2017-08-01T01:52:23.441Z,19.6
2017-08-01T01:53:24.934Z,19.7
2017-08-01T01:54:26.437Z,19.6
2017-08-01T01:55:28.028Z,19.7
2017-08-01T01:57:11.015Z,19.7
2017-08-01T01:58:12.472Z,19.7
2017-08-01T01:59:13.846Z,19.7
2017-08-01T02:00:15.537Z,19.7
2017-08-01T02:01:16.881Z,19.7
2017-08-01T02:02:18.464Z,19.7
2017-08-01T02:03:20.235Z,19.6
2017-08-01T02:04:22.012Z,19.7
2017-08-01T02:05:23.402Z,19.8
2017-08-01T02:06:24.793Z,19.8
2017-08-01T02:07:26.564Z,19.8
2017-08-01T02:08:28.377Z,19.8
2017-08-01T02:09:29.854Z,19.8
2017-08-01T02:10:31.259Z,19.8
2017-08-01T02:11:32.665Z,19.8
2017-08-01T02:12:34.135Z,19.8
2017-08-01T02:13:35.517Z,19.7
2017-08-01T02:14:37.280Z,19.8
2017-08-01T02:15:39.065Z,19.7
2017-08-01T02:16:40.513Z,19.7
2017-08-01T02:17:41.906Z,19.8
2017-08-01T02:18:43.297Z,19.8
2017-08-01T02:19:44.703Z,19.7
2017-08-01T02:20:46.088Z,19.8
2017-08-01T02:21:47.968Z,19.9
2017-08-01T02:22:49.719Z,19.8
2017-08-01T02:23:51.570Z,19.8
2017-08-01T02:24:52.974Z,19.8
2017-08-01T02:25:54.501Z,19.8
2017-08-01T02:26:55.912Z,19.8
2017-08-01T02:27:57.291Z,19.8
2017-08-01T02:28:58.685Z,19.8
2017-08-01T02:30:00.267Z,19.8
2017-08-01T02:31:01.957Z,19.7
2017-08-01T02:32:03.368Z,19.8
2017-08-01T02:33:04.779Z,19.7
2017-08-01T02:34:47.170Z,19.8
2017-08-01T02:35:48.883Z,19.7
2017-08-01T02:36:50.212Z,19.8
2017-08-01T02:37:51.819Z,19.7
2017-08-01T02:38:53.606Z,19.8
2017-08-01T02:39:55.484Z,19.8
2017-08-01T02:40:57.173Z,19.7
2017-08-01T02:41:58.591Z,19.8
2017-08-01T02:43:00.446Z,19.7
2017-08-01T02:44:02.299Z,19.7
2017-08-01T02:45:03.640Z,19.8
2017-08-01T02:46:05.538Z,19.8
2017-08-01T02:47:07.347Z,19.9
2017-08-01T02:48:49.802Z,19.8
2017-08-01T02:49:51.184Z,19.8
2017-08-01T02:50:52.933Z,19.8
2017-08-01T02:51:54.272Z,19.8
2017-08-01T02:52:55.655Z,19.8
2017-08-01T02:53:57.034Z,19.9
2017-08-01T02:54:58.422Z,19.8
2017-08-01T02:56:00.148Z,19.9
2017-08-01T02:57:01.856Z,19.8
2017-08-01T02:58:03.737Z,19.8
2017-08-01T02:59:05.598Z,19.8
2017-08-01T03:00:06.988Z,19.8
2017-08-01T03:01:08.844Z,19.8
2017-08-01T03:02:10.219Z,19.8
2017-08-01T03:03:11.598Z,19.7
2017-08-01T03:04:12.975Z,19.8
2017-08-01T03:05:14.353Z,19.9
2017-08-01T03:06:15.982Z,19.8
2017-08-01T03:07:17.364Z,19.8
2017-08-01T03:08:18.768Z,19.8
2017-08-01T03:09:20.187Z,19.8
2017-08-01T03:10:21.580Z,19.8
2017-08-01T03:11:23.436Z,19.8
2017-08-01T03:12:25.264Z,19.8
2017-08-01T03:13:27.044Z,19.8
2017-08-01T03:14:28.430Z,19.8
2017-08-01T03:15:30.059Z,19.8
2017-08-01T03:16:31.859Z,19.7
2017-08-01T03:17:33.603Z,19.8
2017-08-01T03:18:35.509Z,19.8
2017-08-01T03:19:36.904Z,19.8
2017-08-01T03:20:38.704Z,19.8
2017-08-01T03:22:21.046Z,19.9
2017-08-01T03:23:22.437Z,19.9
2017-08-01T03:24:23.810Z,19.9
2017-08-01T03:25:25.188Z,19.9
2017-08-01T03:26:26.567Z,19.9
2017-08-01T03:27:27.956Z,19.9
2017-08-01T03:28:29.372Z,19.9
2017-08-01T03:30:11.736Z,19.9
2017-08-01T03:31:13.119Z,19.9
2017-08-01T03:32:14.714Z,19.9
2017-08-01T03:33:16.096Z,19.9
2017-08-01T03:34:17.472Z,20.0
2017-08-01T03:35:18.853Z,20.0
2017-08-01T03:36:20.235Z,20.0
2017-08-01T03:37:21.614Z,20.0
2017-08-01T03:38:23.356Z,19.9
2017-08-01T03:39:25.041Z,19.9
2017-08-01T03:40:26.477Z,19.8
2017-08-01T03:41:27.871Z,19.8
2017-08-01T03:42:29.274Z,19.8
2017-08-01T03:43:30.995Z,19.8
2017-08-01T03:44:32.549Z,19.7
2017-08-01T03:45:33.949Z,19.8
2017-08-01T03:46:35.720Z,19.8
2017-08-01T03:47:37.451Z,19.8
2017-08-01T03:48:39.381Z,19.8
2017-08-01T03:49:40.787Z,19.9
2017-08-01T03:50:42.573Z,19.8
2017-08-01T03:51:44.037Z,19.8
2017-08-01T03:52:45.436Z,19.8
2017-08-01T03:53:47.007Z,19.9
2017-08-01T03:54:48.419Z,19.9
2017-08-01T03:55:50.281Z,20.0
2017-08-01T03:56:52.475Z,19.9
2017-08-01T03:57:53.879Z,19.9
2017-08-01T03:58:55.740Z,19.9
2017-08-01T03:59:57.110Z,20.0
2017-08-01T04:00:58.527Z,20.0
2017-08-01T04:01:59.946Z,20.0
2017-08-01T04:03:01.803Z,20.0
2017-08-01T04:04:03.210Z,20.0
2017-08-01T04:05:04.666Z,19.8
2017-08-01T04:06:06.064Z,19.9
2017-08-01T04:07:07.705Z,19.9
2017-08-01T04:08:09.624Z,19.8
2017-08-01T04:09:11.008Z,19.9
2017-08-01T04:10:12.430Z,19.9
2017-08-01T04:11:13.825Z,20.0
2017-08-01T04:12:15.214Z,20.1
2017-08-01T04:13:16.614Z,20.0
2017-08-01T04:14:18.040Z,20.0
2017-08-01T04:15:19.577Z,20.1
2017-08-01T04:16:21.599Z,20.1
2017-08-01T04:18:04.063Z,20.0
2017-08-01T04:19:05.411Z,20.1
2017-08-01T04:20:06.797Z,20.1
2017-08-01T04:21:08.183Z,20.1
2017-08-01T04:22:09.582Z,20.1
2017-08-01T04:23:10.977Z,20.2
2017-08-01T04:24:12.874Z,20.1
2017-08-01T04:25:14.332Z,20.1
2017-08-01T04:26:16.018Z,20.1
2017-08-01T04:27:17.830Z,20.2
2017-08-01T04:28:19.763Z,20.2
2017-08-01T04:29:21.459Z,20.2
2017-08-01T04:30:23.277Z,20.2
2017-08-01T04:31:24.687Z,20.2
2017-08-01T04:32:26.095Z,20.2
2017-08-01T04:33:27.947Z,20.1
2017-08-01T04:34:29.506Z,20.1
2017-08-01T04:35:30.897Z,20.0
2017-08-01T04:36:32.293Z,20.0
2017-08-01T04:37:33.841Z,19.9
2017-08-01T04:38:35.597Z,19.9
2017-08-01T04:39:37.007Z,19.9
2017-08-01T04:40:38.416Z,19.9
2017-08-01T04:41:39.856Z,19.9
2017-08-01T04:42:41.288Z,20.0
2017-08-01T04:43:43.072Z,19.9
2017-08-01T04:44:44.579Z,19.9
2017-08-01T04:45:46.015Z,20.0
2017-08-01T04:46:47.412Z,20.0
2017-08-01T04:47:49.294Z,20.1
2017-08-01T04:48:50.669Z,20.2
2017-08-01T04:49:52.064Z,20.1
2017-08-01T04:50:53.476Z,20.2
2017-08-01T04:51:54.916Z,20.2
2017-08-01T04:52:56.323Z,20.4
2017-08-01T04:53:57.734Z,20.4
2017-08-01T04:55:40.127Z,20.5
2017-08-01T04:56:41.639Z,20.6
2017-08-01T04:57:43.821Z,20.8
2017-08-01T04:58:45.909Z,21.0
2017-08-01T04:59:47.765Z,21.1
2017-08-01T05:00:49.733Z,21.3
2017-08-01T05:01:51.311Z,21.3
2017-08-01T05:02:52.682Z,21.5
2017-08-01T05:03:54.134Z,21.7
2017-08-01T05:04:55.523Z,21.9
2017-08-01T05:05:57.491Z,22.2
2017-08-01T05:07:39.884Z,22.3
2017-08-01T05:08:41.281Z,22.6
2017-08-01T05:09:43.193Z,22.8
2017-08-01T05:10:44.581Z,22.8
2017-08-01T05:11:45.968Z,22.8
2017-08-01T05:12:47.356Z,23.0
2017-08-01T05:13:48.742Z,23.1
2017-08-01T05:14:50.131Z,23.2
2017-08-01T05:16:34.012Z,23.2
2017-08-01T05:17:35.456Z,23.4
2017-08-01T05:18:36.838Z,23.5
2017-08-01T05:19:38.226Z,23.6
2017-08-01T05:20:40.218Z,23.7
2017-08-01T05:21:41.604Z,23.8
2017-08-01T05:22:43.000Z,23.9
2017-08-01T05:23:44.420Z,23.9
2017-08-01T05:24:45.817Z,23.9
2017-08-01T05:25:47.258Z,24.0
2017-08-01T05:26:48.678Z,23.8
2017-08-01T05:27:50.390Z,23.9
2017-08-01T05:28:51.783Z,24.1
2017-08-01T05:29:53.186Z,24.3
2017-08-01T05:30:54.605Z,24.5
2017-08-01T05:32:36.989Z,24.4
2017-08-01T05:33:38.374Z,24.5
2017-08-01T05:34:39.788Z,24.6
2017-08-01T05:35:41.175Z,24.5
2017-08-01T05:36:42.566Z,24.7
2017-08-01T05:37:43.958Z,24.8
2017-08-01T05:38:45.476Z,24.7
2017-08-01T05:39:47.167Z,24.6
2017-08-01T05:40:48.955Z,24.5
2017-08-01T05:42:30.322Z,24.5
2017-08-01T05:43:31.709Z,24.5
2017-08-01T05:44:33.100Z,24.4
2017-08-01T05:45:34.562Z,24.4
2017-08-01T05:46:35.934Z,24.2
2017-08-01T05:47:37.326Z,24.2
2017-08-01T05:48:38.810Z,24.3
2017-08-01T05:49:40.257Z,24.2
2017-08-01T05:50:41.643Z,24.1
2017-08-01T05:51:43.034Z,24.2
2017-08-01T05:52:44.476Z,23.9
2017-08-01T05:53:45.859Z,23.9
2017-08-01T05:54:47.265Z,23.8
2017-08-01T05:55:48.657Z,23.7
2017-08-01T05:56:50.064Z,23.5
2017-08-01T05:57:51.750Z,23.5
2017-08-01T05:58:53.151Z,23.6
2017-08-01T05:59:54.599Z,23.6
2017-08-01T06:00:56.021Z,23.5
2017-08-01T06:01:57.485Z,23.5
2017-08-01T06:02:58.985Z,23.3
2017-08-01T06:04:00.433Z,23.4
2017-08-01T06:05:01.846Z,23.3
2017-08-01T06:06:03.245Z,23.4
2017-08-01T06:07:05.144Z,23.4
2017-08-01T06:08:06.583Z,23.4
2017-08-01T06:09:08.331Z,23.5
2017-08-01T06:10:09.790Z,23.7
2017-08-01T06:11:11.189Z,23.9
2017-08-01T06:12:12.584Z,24.1
2017-08-01T06:13:14.242Z,24.3
2017-08-01T06:14:15.644Z,24.5
2017-08-01T06:15:17.046Z,24.6
2017-08-01T06:16:18.454Z,24.6
2017-08-01T06:17:19.900Z,24.7
2017-08-01T06:18:21.302Z,24.8
2017-08-01T06:19:22.697Z,25.0
2017-08-01T06:20:24.125Z,25.0
2017-08-01T06:21:25.547Z,25.3
2017-08-01T06:22:26.942Z,25.4
2017-08-01T06:23:28.426Z,25.7
2017-08-01T06:24:29.811Z,25.9
2017-08-01T06:25:31.217Z,25.9
2017-08-01T06:26:32.611Z,26.1
2017-08-01T06:28:15.054Z,26.1
2017-08-01T06:29:16.448Z,26.1
2017-08-01T06:30:17.836Z,26.3
2017-08-01T06:31:19.235Z,26.3
2017-08-01T06:32:20.637Z,26.6
2017-08-01T06:33:22.024Z,26.7
2017-08-01T06:34:23.425Z,27.0
2017-08-01T06:35:24.822Z,27.0
2017-08-01T06:36:26.205Z,27.2
2017-08-01T06:37:27.611Z,27.2
2017-08-01T06:38:29.020Z,27.1
2017-08-01T06:39:30.415Z,27.2
2017-08-01T06:40:31.807Z,27.2
2017-08-01T06:41:33.202Z,27.4
2017-08-01T06:42:34.600Z,27.3
2017-08-01T06:43:35.990Z,27.2
2017-08-01T06:44:37.465Z,27.0
2017-08-01T06:45:38.874Z,26.8
2017-08-01T06:46:40.283Z,26.8
2017-08-01T06:47:41.676Z,26.7
2017-08-01T06:48:43.072Z,26.5
2017-08-01T06:50:25.484Z,26.5
2017-08-01T06:51:26.880Z,26.2
2017-08-01T06:52:28.268Z,26.0
2017-08-01T06:53:29.670Z,25.7
2017-08-01T06:54:31.060Z,25.9
2017-08-01T06:55:32.452Z,25.8
2017-08-01T06:56:33.847Z,25.6
2017-08-01T06:57:35.242Z,25.5
2017-08-01T06:58:36.632Z,25.5
2017-08-01T06:59:38.028Z,25.0
2017-08-01T07:00:39.472Z,25.2
2017-08-01T07:01:40.897Z,25.1
2017-08-01T07:02:42.286Z,25.0
2017-08-01T07:03:43.830Z,24.9
2017-08-01T07:04:45.282Z,24.9
2017-08-01T07:05:46.704Z,24.8
2017-08-01T07:06:48.179Z,24.8
2017-08-01T07:07:49.759Z,24.6
2017-08-01T07:08:51.172Z,24.7
2017-08-01T07:09:52.574Z,24.7
2017-08-01T07:10:53.970Z,24.8
2017-08-01T07:11:55.387Z,24.9
2017-08-01T07:12:56.805Z,25.1
2017-08-01T07:13:58.352Z,25.2
2017-08-01T07:15:00.004Z,25.2
2017-08-01T07:16:01.428Z,25.1
2017-08-01T07:17:43.822Z,25.2
2017-08-01T07:18:45.223Z,25.1
2017-08-01T07:19:46.610Z,25.1
2017-08-01T07:20:48.003Z,25.2
2017-08-01T07:21:49.446Z,25.2
2017-08-01T07:22:50.850Z,25.3
2017-08-01T07:23:52.230Z,25.0
2017-08-01T07:24:53.644Z,25.0
2017-08-01T07:25:55.056Z,25.0
2017-08-01T07:26:56.436Z,25.2
2017-08-01T07:27:57.874Z,25.2
2017-08-01T07:28:59.246Z,25.0
2017-08-01T07:30:00.637Z,25.2
2017-08-01T07:31:02.030Z,25.2
2017-08-01T07:32:03.427Z,25.2
2017-08-01T07:33:04.934Z,25.2
2017-08-01T07:34:06.319Z,25.0
2017-08-01T07:35:48.712Z,24.8
2017-08-01T07:36:50.102Z,24.9
2017-08-01T07:37:51.493Z,25.0
2017-08-01T07:38:52.882Z,25.3
2017-08-01T07:39:54.404Z,25.4
2017-08-01T07:40:55.799Z,25.6
2017-08-01T07:41:57.191Z,25.6
2017-08-01T07:42:58.585Z,25.6
2017-08-01T07:44:00.002Z,25.5
2017-08-01T07:45:01.400Z,25.3
2017-08-01T07:46:02.792Z,25.1
2017-08-01T07:47:04.181Z,25.0
2017-08-01T07:48:05.610Z,24.9
2017-08-01T07:49:07.002Z,24.8
2017-08-01T07:50:08.399Z,24.7
2017-08-01T07:51:09.796Z,24.6
2017-08-01T07:52:11.181Z,24.7
2017-08-01T07:53:12.832Z,24.5
2017-08-01T07:54:14.289Z,24.7
2017-08-01T07:55:15.652Z,24.8
2017-08-01T07:56:17.045Z,24.8
2017-08-01T07:57:18.438Z,24.8
2017-08-01T07:58:19.847Z,25.0
2017-08-01T07:59:21.232Z,25.0
2017-08-01T08:00:22.637Z,25.0
2017-08-01T08:01:24.039Z,25.1
2017-08-01T08:02:25.448Z,25.0
2017-08-01T08:03:26.869Z,25.1
2017-08-01T08:04:28.269Z,25.1
2017-08-01T08:05:29.776Z,25.2
2017-08-01T08:09:15.153Z,25.3
2017-08-01T08:10:16.539Z,25.5
2017-08-01T08:11:17.934Z,25.6
2017-08-01T08:12:19.350Z,25.6
2017-08-01T08:13:20.737Z,25.8
2017-08-01T08:14:22.130Z,25.9
2017-08-01T08:15:23.524Z,26.1
2017-08-01T08:16:24.957Z,26.2
2017-08-01T08:17:26.347Z,26.4
2017-08-01T08:18:27.737Z,26.5
2017-08-01T08:19:29.145Z,26.5
2017-08-01T08:20:30.542Z,26.4
2017-08-01T08:22:12.966Z,26.5
2017-08-01T08:23:14.370Z,26.5
2017-08-01T08:24:15.759Z,26.4
2017-08-01T08:25:17.153Z,26.3
2017-08-01T08:26:18.542Z,26.2
2017-08-01T08:27:19.951Z,26.3
2017-08-01T08:28:21.362Z,26.2
2017-08-01T08:29:22.746Z,26.3
2017-08-01T08:30:24.180Z,26.4
2017-08-01T08:31:25.577Z,26.1
2017-08-01T08:32:26.971Z,26.0
2017-08-01T08:33:28.399Z,26.1
2017-08-01T08:34:29.831Z,26.0
2017-08-01T08:35:31.285Z,26.1
2017-08-01T08:36:32.772Z,26.1
2017-08-01T08:37:34.202Z,26.2
2017-08-01T08:38:35.619Z,26.0
2017-08-01T08:39:36.996Z,26.1
2017-08-01T08:40:38.387Z,26.2
2017-08-01T08:41:39.789Z,26.1
2017-08-01T08:42:41.549Z,26.2
2017-08-01T08:43:42.933Z,26.2
2017-08-01T08:44:44.320Z,26.2
2017-08-01T08:45:45.717Z,26.1
2017-08-01T08:46:47.554Z,26.1
2017-08-01T08:47:48.950Z,25.8
2017-08-01T08:48:50.362Z,25.9
2017-08-01T08:49:51.756Z,25.8
2017-08-01T08:50:53.276Z,25.8
2017-08-01T08:51:54.692Z,25.8
2017-08-01T08:52:56.082Z,25.8
2017-08-01T08:53:57.830Z,25.9
2017-08-01T08:54:59.255Z,26.0
2017-08-01T08:56:00.660Z,25.9
2017-08-01T08:57:43.057Z,25.7
2017-08-01T08:58:44.450Z,25.7
2017-08-01T08:59:45.843Z,25.5
2017-08-01T09:00:47.233Z,25.6
2017-08-01T09:01:48.623Z,25.3
2017-08-01T09:02:50.024Z,25.1
2017-08-01T09:03:51.417Z,25.1
2017-08-01T09:04:52.809Z,24.9
2017-08-01T09:05:54.294Z,24.9
2017-08-01T09:06:55.715Z,24.9
2017-08-01T09:07:57.091Z,24.8
2017-08-01T09:09:39.502Z,24.4
2017-08-01T09:10:40.886Z,24.3
2017-08-01T09:11:42.270Z,24.1
2017-08-01T09:12:43.666Z,24.0
2017-08-01T09:13:45.077Z,23.9
2017-08-01T09:14:46.470Z,23.9
2017-08-01T09:15:47.893Z,23.7
2017-08-01T09:16:49.281Z,23.5
2017-08-01T09:17:50.674Z,23.7
2017-08-01T09:18:52.061Z,23.5
2017-08-01T09:19:53.455Z,23.4
2017-08-01T09:20:54.925Z,23.3
2017-08-01T09:21:56.321Z,23.2
2017-08-01T09:22:57.709Z,23.3
2017-08-01T09:23:59.102Z,23.2
2017-08-01T09:25:00.533Z,23.1
2017-08-01T09:26:42.895Z,23.1
2017-08-01T09:27:44.275Z,23.2
2017-08-01T09:28:45.665Z,23.2
2017-08-01T09:29:47.052Z,23.3
2017-08-01T09:30:48.455Z,23.2
2017-08-01T09:31:49.893Z,23.2
2017-08-01T09:32:51.279Z,23.3
2017-08-01T09:33:52.671Z,23.4
2017-08-01T09:34:54.112Z,23.6
2017-08-01T09:35:55.588Z,23.7
2017-08-01T09:36:57.084Z,23.8
2017-08-01T09:37:58.686Z,23.8
2017-08-01T09:39:00.252Z,23.8
2017-08-01T09:40:01.729Z,23.9
2017-08-01T09:41:03.714Z,24.1
2017-08-01T09:42:05.705Z,23.9
2017-08-01T09:43:07.157Z,23.9
2017-08-01T09:44:08.809Z,23.9
2017-08-01T09:45:10.526Z,23.8
2017-08-01T09:46:53.409Z,23.8
2017-08-01T09:47:56.210Z,23.9
2017-08-01T09:48:57.635Z,23.8
2017-08-01T09:49:59.133Z,23.8
2017-08-01T09:51:00.602Z,23.9
2017-08-01T09:52:02.049Z,23.8
2017-08-01T09:53:03.469Z,23.9
2017-08-01T09:54:04.877Z,24.0
2017-08-01T09:55:06.537Z,24.1
2017-08-01T09:56:08.007Z,24.2
2017-08-01T09:57:09.509Z,24.3
2017-08-01T09:58:11.009Z,24.3
2017-08-01T09:59:12.394Z,24.5
2017-08-01T10:00:13.862Z,24.7
2017-08-01T10:01:15.288Z,24.8
2017-08-01T10:02:16.754Z,25.1
2017-08-01T10:03:18.609Z,25.2
2017-08-01T10:04:20.470Z,25.3
2017-08-01T10:05:21.891Z,25.5
2017-08-01T10:06:23.762Z,25.5
2017-08-01T10:07:25.275Z,25.6
2017-08-01T10:08:26.724Z,25.6
2017-08-01T10:09:28.656Z,25.7
2017-08-01T10:10:30.480Z,25.8
2017-08-01T10:11:32.312Z,25.8
2017-08-01T10:12:34.225Z,25.8
2017-08-01T10:13:35.720Z,25.8
2017-08-01T10:14:37.204Z,25.8
2017-08-01T10:15:38.734Z,25.8
2017-08-01T10:16:40.206Z,25.7
2017-08-01T10:18:22.664Z,25.5
2017-08-01T10:19:24.020Z,25.4
2017-08-01T10:20:25.409Z,25.8
2017-08-01T10:21:26.814Z,26.4
2017-08-01T10:22:28.282Z,27.0
2017-08-01T10:23:29.742Z,27.4
2017-08-01T10:24:31.143Z,27.8
2017-08-01T10:25:32.572Z,28.0
2017-08-01T10:26:33.961Z,28.2
2017-08-01T10:27:35.355Z,28.5
2017-08-01T10:28:36.768Z,28.8
2017-08-01T10:29:38.167Z,28.8
2017-08-01T10:30:39.561Z,28.7
2017-08-01T10:31:40.959Z,28.7
2017-08-01T10:32:42.356Z,29.0
2017-08-01T10:34:24.775Z,29.9
2017-08-01T10:35:26.169Z,30.3
2017-08-01T10:36:27.568Z,30.2
2017-08-01T10:37:28.975Z,30.9
2017-08-01T10:38:30.359Z,31.4
2017-08-01T10:39:31.762Z,31.2
2017-08-01T10:40:33.190Z,31.3
2017-08-01T10:41:34.590Z,31.4
2017-08-01T10:42:35.988Z,31.4
2017-08-01T10:43:37.388Z,31.4
2017-08-01T10:44:38.793Z,31.3
2017-08-01T10:45:40.194Z,31.5
2017-08-01T10:46:41.597Z,31.4
2017-08-01T10:47:43.013Z,31.4
2017-08-01T10:48:44.410Z,31.4
2017-08-01T10:49:45.810Z,31.6
2017-08-01T10:50:47.208Z,31.6
2017-08-01T10:52:29.606Z,32.0
2017-08-01T10:53:31.007Z,32.1
2017-08-01T10:54:32.415Z,31.7
2017-08-01T10:55:33.817Z,31.7
2017-08-01T10:56:35.217Z,31.9
2017-08-01T10:57:36.627Z,31.8
2017-08-01T10:58:38.040Z,32.0
2017-08-01T10:59:39.447Z,31.9
2017-08-01T11:00:40.848Z,31.9
2017-08-01T11:01:42.250Z,31.8
2017-08-01T11:02:43.657Z,31.7
2017-08-01T11:03:45.065Z,31.5
2017-08-01T11:04:46.465Z,31.5
2017-08-01T11:05:47.917Z,31.3
2017-08-01T11:06:49.304Z,30.9
2017-08-01T11:07:50.701Z,30.8
2017-08-01T11:08:52.090Z,30.4
2017-08-01T11:09:53.517Z,30.3
2017-08-01T11:10:54.934Z,29.9
2017-08-01T11:11:56.335Z,30.1
2017-08-01T11:13:38.745Z,30.1
2017-08-01T11:14:40.143Z,30.4
2017-08-01T11:15:41.540Z,30.4
2017-08-01T11:16:42.957Z,30.5
2017-08-01T11:17:44.361Z,30.4
2017-08-01T11:18:45.762Z,30.3
2017-08-01T11:19:47.165Z,30.5
2017-08-01T11:20:48.569Z,30.4
2017-08-01T11:21:49.971Z,30.3
2017-08-01T11:22:51.368Z,30.3
2017-08-01T11:23:52.806Z,30.4
2017-08-01T11:24:54.195Z,30.3
2017-08-01T11:25:55.596Z,30.1
2017-08-01T11:26:56.994Z,29.9
2017-08-01T11:27:58.443Z,29.5
2017-08-01T11:28:59.843Z,29.7
2017-08-01T11:30:01.238Z,29.7
2017-08-01T11:31:02.645Z,29.5
2017-08-01T11:32:04.041Z,29.6
2017-08-01T11:33:05.440Z,29.5
2017-08-01T11:34:06.838Z,29.5
2017-08-01T11:35:08.249Z,29.6
2017-08-01T11:36:09.648Z,29.3
2017-08-01T11:37:11.061Z,29.5
2017-08-01T11:38:53.459Z,29.5
2017-08-01T11:39:54.861Z,29.5
2017-08-01T11:40:56.257Z,29.5
2017-08-01T11:41:57.650Z,29.2
2017-08-01T11:42:59.053Z,29.0
2017-08-01T11:44:00.545Z,29.4
2017-08-01T11:45:01.930Z,29.3
2017-08-01T11:46:03.332Z,29.0
2017-08-01T11:47:04.735Z,29.3
2017-08-01T11:48:06.135Z,29.4
2017-08-01T11:49:07.539Z,29.6
2017-08-01T11:50:08.948Z,29.7
2017-08-01T11:51:10.353Z,29.8
2017-08-01T11:52:11.761Z,29.7
2017-08-01T11:53:13.178Z,29.6
2017-08-01T11:54:14.576Z,29.6
2017-08-01T11:55:15.975Z,29.1
2017-08-01T11:56:17.371Z,29.1
2017-08-01T11:57:18.765Z,28.8
2017-08-01T11:58:20.162Z,28.6
2017-08-01T11:59:21.572Z,28.4
2017-08-01T12:00:23.011Z,28.4
2017-08-01T12:01:24.406Z,28.1
2017-08-01T12:02:25.803Z,27.9
2017-08-01T12:03:27.227Z,27.9
2017-08-01T12:04:28.615Z,27.9
2017-08-01T12:05:30.013Z,27.7
2017-08-01T12:06:31.487Z,27.7
2017-08-01T12:07:32.911Z,27.7
2017-08-01T12:08:34.307Z,27.7
2017-08-01T12:09:35.701Z,27.7
2017-08-01T12:10:37.105Z,27.8
2017-08-01T12:11:38.544Z,27.6
2017-08-01T12:12:39.938Z,27.4
2017-08-01T12:13:41.426Z,27.1
2017-08-01T12:14:42.926Z,26.7
2017-08-01T12:15:44.328Z,26.8
2017-08-01T12:16:45.719Z,27.0
2017-08-01T12:17:47.129Z,27.1
2017-08-01T12:18:48.554Z,27.2
2017-08-01T12:19:49.966Z,27.4
2017-08-01T12:20:51.510Z,27.3
2017-08-01T12:21:52.994Z,27.2
2017-08-01T12:22:54.401Z,27.1
2017-08-01T12:23:55.800Z,26.9
2017-08-01T12:24:57.195Z,27.0
2017-08-01T12:25:58.657Z,27.0
2017-08-01T12:27:00.089Z,26.6
2017-08-01T12:28:01.486Z,26.7
2017-08-01T12:29:02.970Z,26.8
2017-08-01T12:30:04.435Z,26.8
2017-08-01T12:31:05.903Z,26.7
2017-08-01T12:32:07.328Z,26.7
2017-08-01T12:33:08.726Z,26.3
2017-08-01T12:34:10.117Z,26.1
2017-08-01T12:35:11.535Z,25.8
2017-08-01T12:36:12.983Z,25.6
2017-08-01T12:37:14.406Z,25.6
2017-08-01T12:38:15.840Z,25.8
2017-08-01T12:39:17.239Z,25.9
2017-08-01T12:40:18.669Z,26.1
2017-08-01T12:41:20.160Z,26.1
2017-08-01T12:42:21.562Z,26.1
2017-08-01T12:43:22.984Z,26.3
2017-08-01T12:44:24.501Z,26.2
2017-08-01T12:45:25.891Z,26.3
2017-08-01T12:46:27.407Z,26.4
2017-08-01T12:47:28.805Z,26.4
2017-08-01T12:48:30.207Z,26.4
2017-08-01T12:49:31.736Z,26.3
2017-08-01T12:51:14.122Z,26.4
2017-08-01T12:52:15.511Z,26.5
2017-08-01T12:53:17.325Z,26.3
2017-08-01T12:54:18.733Z,26.3
2017-08-01T12:55:20.124Z,26.3
2017-08-01T12:56:21.516Z,26.4
2017-08-01T12:57:22.924Z,26.4
2017-08-01T12:58:24.324Z,26.1
2017-08-01T12:59:25.713Z,26.2
2017-08-01T13:00:27.110Z,26.3
2017-08-01T13:01:28.564Z,26.3
2017-08-01T13:02:29.955Z,26.2
2017-08-01T13:03:31.343Z,26.0
2017-08-01T13:04:32.731Z,25.9
2017-08-01T13:05:34.159Z,26.0
2017-08-01T13:06:35.573Z,25.9
2017-08-01T13:07:36.975Z,26.0
2017-08-01T13:08:38.370Z,25.9
2017-08-01T13:09:39.811Z,25.8
2017-08-01T13:10:41.245Z,25.9
2017-08-01T13:11:42.674Z,25.9
2017-08-01T13:12:44.070Z,25.9
2017-08-01T13:13:45.586Z,26.1
2017-08-01T13:14:46.959Z,26.2
2017-08-01T13:15:48.406Z,26.4
2017-08-01T13:16:49.965Z,26.5
2017-08-01T13:17:51.370Z,26.6
2017-08-01T13:18:52.776Z,26.7
2017-08-01T13:19:54.248Z,26.5
2017-08-01T13:20:55.642Z,26.4
2017-08-01T13:21:57.044Z,26.5
2017-08-01T13:22:58.504Z,26.5
2017-08-01T13:23:59.943Z,26.7
2017-08-01T13:25:01.372Z,26.8
2017-08-01T13:26:02.753Z,26.7
2017-08-01T13:27:04.198Z,26.9
2017-08-01T13:28:05.600Z,26.8
2017-08-01T13:29:06.991Z,26.7
2017-08-01T13:30:08.386Z,26.7
2017-08-01T13:31:09.779Z,26.7
2017-08-01T13:32:11.173Z,26.8
2017-08-01T13:33:12.567Z,26.9
2017-08-01T13:34:54.960Z,27.0
2017-08-01T13:35:56.352Z,27.0
2017-08-01T13:36:57.747Z,26.8
2017-08-01T13:37:59.294Z,26.9
2017-08-01T13:39:00.685Z,26.9
2017-08-01T13:40:02.079Z,26.7
2017-08-01T13:41:03.497Z,26.8
2017-08-01T13:42:04.924Z,27.1
2017-08-01T13:43:06.324Z,27.0
2017-08-01T13:44:07.716Z,26.9
2017-08-01T13:45:09.135Z,26.8
2017-08-01T13:46:10.519Z,26.6
2017-08-01T13:47:11.929Z,26.7
2017-08-01T13:48:13.367Z,26.7
2017-08-01T13:49:14.781Z,26.6
2017-08-01T13:50:16.189Z,26.5
2017-08-01T13:51:17.587Z,26.6
2017-08-01T13:52:19.026Z,26.6
2017-08-01T13:53:20.429Z,26.4
2017-08-01T13:54:21.830Z,26.4
2017-08-01T13:56:04.272Z,26.4
2017-08-01T13:57:05.662Z,26.5
2017-08-01T13:58:07.050Z,26.5
2017-08-01T13:59:08.439Z,26.5
2017-08-01T14:00:09.843Z,26.7
2017-08-01T14:01:11.239Z,26.6
2017-08-01T14:02:12.631Z,26.6
2017-08-01T14:03:14.027Z,26.6
2017-08-01T14:04:15.425Z,26.5
2017-08-01T14:05:16.825Z,26.7